Résultats

14 KM - TRAIL DES ROCHES BLANCHES. Édition 2022.

14 Km
06/11/2022 à 08:30:00 - La Garde Freinet (83)
153 arrivant(e)s.


 
Les autres classements de cet évènement




Place▲ Temps Dossard Nom Prenom Categ #Categ Sexe #Sexe ClubVit Moy Diplôme Partager
1 01:13:07 292 DELECOUR GABRIEL SEM 1 M 1 UST COURIR A SAINT STROPEZ11.49
2 01:14:12 303 DUBREUIL BRUNO M2M 1 M 2 TRAIL NATURE VIDAUBAN11.32
3 01:14:38 342 LE-BOT MARTIN SEM 2 M 3 COURIR EN PAYS DE GRASSE11.26
4 01:16:10 348 LELONG JULIE SEF 1 F 1 COURIR EN PAYS DE GRASSE11.03
5 01:16:59 247 AUDOUBERT OLIVIER M0M 1 M 4 AMSLF FREJUS OXUBII10.91
6 01:18:12 287 DEBONO THIERRY M0M 2 M 5 LONDAIS ATHLETIC MEDITERRANEEN10.74
7 01:18:49 346 LEGLAND MELAINE M0M 3 M 6 10.66
8 01:19:32 254 BERTORA MICKAEL M0M 4 M 7 10.56
9 01:21:29 260 BOISBINEUF ERIC M2M 2 M 8 10.31
10 01:21:29 336 LACLEF JOCELYN M4M 1 M 9 DRAGUIGNAN UC10.31
11 01:22:14 242 ALLIONE JULIEN M0M 5 M 10 TRAIL NATURE VIDAUBAN10.21
12 01:23:01 378 POTTIER ANTHONY M0M 6 M 11 10.12
13 01:23:47 358 MELOSI ROMAIN M0M 7 M 12 NWA COTE BLEUE10.03
14 01:25:23 333 KEMPF JEAN SEM 3 M 13 9.84
15 01:25:56 251 BELLIARD SEBASTIEN M1M 1 M 14 9.78
16 01:26:05 372 PIAT SEBASTIEN M1M 2 M 15 STE MAXIME ATHLE9.76
17 01:26:10 266 BRIEN GABRIELA SEF 2 F 2 OSE 3 SPORTS STE MAXIME9.75
18 01:26:33 316 GALAUP JULIEN M1M 3 M 16 9.71
19 01:27:54 250 BARALE MATHIEU M0M 8 M 17 TRAIL NATURE VIDAUBAN9.56
20 01:28:04 317 GARCIA THOMAS-CLAUDE M2M 3 M 18 9.54
21 01:28:29 275 CERES ROBERT M5M 1 M 19 9.49
22 01:29:07 338 LANGEVIN QUENTIN SEM 4 M 20 9.43
23 01:29:28 381 RAMIREZ ALFREDO M3M 1 M 21 9.39
24 01:29:49 244 AMOUROUX DAMIEN SEM 5 M 22 9.35
25 01:30:15 366 NARESSI ALAIN M3M 2 M 23 9.31
26 01:30:24 335 LABRE KEVIN SEM 6 M 24 9.29
27 01:30:33 374 PODEVIN LOUIS SEM 7 M 25 NAVAL GROUP9.28
28 01:30:43 367 NEEL FANNY SEF 3 F 3 9.26
29 01:30:48 399 LOPEZ SERGE M5M 2 M 26 9.25
30 01:30:52 391 TOUCHE PIERRE-YVES M3M 3 M 27 CLUB OMNISPORT HYEROIS ATHLETISME9.24
31 01:31:09 320 GIULIANO DANIEL M6M 1 M 28 DRAGUIGNAN UNION CLUB ATHLETISME9.22
32 01:32:12 353 MAGNIER OLIVIER M1M 4 M 29 TRAIL RUN LUCOIS9.11
33 01:32:26 377 PORTE BAPTISTE SEM 8 M 30 LES ARCS RUNNING9.09
34 01:32:50 268 BROVILLE VALENTIN SEM 9 M 31 9.05
35 01:32:56 296 DELEVAL MARIE SEF 4 F 4 9.04
36 01:33:21 310 FELGEIROLLES BRUNO M0M 9 M 32 9.00
37 01:33:26 281 DAMBREVILLE DIDIER M2M 4 M 33 8.99
38 01:34:21 276 CHARPIAT CATHY M2F 1 F 5 STE MAXIME ATHLE8.90
39 01:35:12 388 SPURI-RAGNI DAMIEN M2M 5 M 34 STE MAXIME ATHLE8.82
40 01:35:13 396 VITRANT JONATHAN M3M 4 M 35 STE MAXIME ATHLE8.82
41 01:35:56 376 POINTEAU LUDOVIC M4M 2 M 36 UST COURIR A SAINT STROPEZ8.76
42 01:35:57 311 FLAMENT CAROLINE M3F 1 F 6 UST COURIR A SAINT STROPEZ8.75
43 01:36:04 314 FURTADO DEBORAH M0F 1 F 7 TRAIL RUN LUCOIS8.74
44 01:36:04 302 DORNET NICOLAS M1M 5 M 37 83340 LE LUC8.74
45 01:36:10 288 DEGOT YANNICK M2M 6 M 38 SMAC SAINT MAXIMIN ATHLETIC CLUB8.73
46 01:37:28 390 THYOUX GUILLAUME M2M 7 M 39 TRAIL NATURE VIDAUBAN8.62
47 01:37:51 241 ABENDSCHEIN BENJAMIN M3M 5 M 40 8.58
48 01:38:38 282 DARRE JOHAN SEM 10 M 41 8.52
49 01:39:06 382 RICHERMOZ DAVID M1M 6 M 42 COURTFOREST8.48
50 01:39:09 325 GRESSE LAURENT M1M 7 M 43 8.47
51 01:39:44 383 RINAUDO CLEMENT JUM 1 M 44 8.42
52 01:39:54 258 BLANCHARD PASCAL M6M 2 M 45 8.41
53 01:39:58 278 COULMAIN ALAIN M5M 3 M 46 TRAIL RUN LUCOIS8.40
54 01:40:05 327 GUILHOT CELINE SEF 5 F 8 TRAIL RUN LUCOIS8.39
55 01:40:12 328 ISSALYS CAROLE M4F 1 F 9 8.38
56 01:40:16 309 FAUCHET LOUIS ESM 1 M 47 8.38
57 01:40:47 395 VANLEDE THOMAS SEM 11 M 48 GONFA-RUN8.33
58 01:41:17 343 LE-FLOCH STEPHANE M3M 6 M 49 TRAIL NATURE VIDAUBAN8.29
59 01:41:35 289 DELAMARE ANTOINE SEM 12 M 50 8.27
60 01:42:03 249 AUTERI MYLENE M4F 2 F 10 UST COURIR A SAINT STROPEZ8.23
61 01:42:44 280 COURAT THIBAULT SEM 13 M 51 8.18
62 01:42:46 347 LEGRAND FRANCOISE M4F 3 F 11 8.17
63 01:42:52 304 DUBURCQ ENZO CAM 1 M 52 8.17
64 01:42:54 270 CADIEU BASILE CAM 2 M 53 STE MAXIME ATHLE8.16
65 01:42:55 356 MARRIE ERIC M3M 7 M 54 ECOLES MILITAIRES DE DRAGUIGNAN8.16
66 01:43:00 364 MOULIN THOMAS M0M 10 M 55 TRAIL NATURE VIDAUBAN8.16
67 01:43:56 286 DE-SANTIS LAURENT M3M 8 M 56 GONFA-RUN8.08
68 01:43:58 359 MERLATTI JULIEN SEM 14 M 57 GONFA-RUN8.08
69 01:44:29 339 LANGLOIS PIERRE M2M 8 M 58 TRAIL RUN LUCOIS8.04
70 01:45:11 245 ARDIZZONE CLAUDINE M4F 4 F 12 7.99
71 01:45:24 380 RABY DAMIEN M4M 3 M 59 NAVAL GROUP7.97
72 01:45:37 261 BONNAN CHRISTOPHE M3M 9 M 60 7.95
73 01:45:59 363 MONGE ROMAIN SEM 15 M 61 7.93
74 01:46:09 285 DE-BROUWER BASTIEN M3M 10 M 62 7.91
75 01:46:14 253 BERRUTI MICHEL M4M 4 M 63 7.91
76 01:46:18 331 JORANDON GILLES M5M 4 M 64 UST COURIR A SAINT STROPEZ7.90
77 01:46:19 256 BESTAGNO STEPHANIE M0F 2 F 13 7.90
78 01:47:00 308 FAUCHET CORINNE M3F 2 F 14 A C VIDAUBAN7.85
79 01:47:12 273 CASCALES JEROME M1M 8 M 65 A C VIDAUBAN7.84
80 01:47:47 294 DELETANG CHRISTOPHE M3M 11 M 66 7.79
81 01:48:33 387 SEGRETIN ALEXIA M2F 2 F 15 TRAIL NATURE VIDAUBAN7.74
82 01:48:39 323 GOTHON JOEL M5M 5 M 67 UST COURIR A SAINT STROPEZ7.73
83 01:48:41 264 BOURGOIS SEVERINE M3F 3 F 16 7.73
84 01:48:42 379 PRAZ AURELIE M3F 4 F 17 7.73
85 01:48:46 284 DAZIANO JEAN-PIERRE M3M 12 M 68 GONFA-RUN7.72
86 01:49:03 349 LELONG NICOLAS M3M 13 M 69 TRIATHLON CLUB DE ST TROPEZ7.70
87 01:49:09 341 LARAVOIRE CHRISTELLE M2F 3 F 18 7.70
88 01:49:12 354 MALBLANC LUDOVIC M1M 9 M 70 7.69
89 01:49:42 291 DELAMARE DOMINIQUE M4M 5 M 71 7.66
90 01:49:51 243 ALZIEU VIRGINIE M3F 5 F 19 7.65
91 01:50:07 279 COUMONT CHARLOTTE M0F 3 F 20 TRAIL RUN LUCOIS7.63
92 01:50:22 295 DELETANG RAPHAEL M1M 10 M 72 7.61
93 01:50:39 344 LE-SCAVARREC ERIC M3M 14 M 73 GRIMAUD D'RAILL BAND7.59
94 01:50:40 345 LE-SCAVARREC NATHALIE M3F 6 F 21 7.59
95 01:50:54 267 BROCHOT VIRGINIE M1F 1 F 22 TRAIL NATURE VIDAUBAN7.57
96 01:51:00 351 LIOGIER FRANCK M3M 15 M 74 STE MAXIME ATHLE7.57
97 01:52:50 385 SALINAS SEBASTIEN M1M 11 M 75 7.44
98 01:53:02 306 DUTILLEUL ISABELLE M3F 7 F 23 TRAIL RUN LUCOIS7.43
99 01:53:03 272 CASACALES CHRISTOPHE M1M 12 M 76 TRAIL RUN LUCOIS7.43
100 01:53:23 319 GILIET JEAN-YVES SEM 16 M 77 TRAIL RUN LUCOIS7.41
101 01:54:01 263 BOUAZIZ SALIHA M3F 8 F 24 7.37